Time;durP1;ratioP1;P1;durP2;ratioP2;P2;SDS_P1;SDS_P2;PMS_P1;PMS_P2;Temp;Humidity;BMP_temperature;BMP_pressure;BME280_temperature;BME280_humidity;BME280_pressure;Samples;Min_cycle;Max_cycle;Signal;HPM_P1;HPM_P2
2022/05/24 00:01:42;;;;;;;10.25;5.60;;;;;;;;;;5074492;28;20428;-75
2022/05/24 00:04:07;;;;;;;8.52;4.95;;;;;;;;;;5075029;28;20071;-76
2022/05/24 00:06:33;;;;;;;7.55;4.95;;;;;;;;;;5074955;28;20021;-68
2022/05/24 00:09:00;;;;;;;9.77;5.30;;;;;;;;;;5074665;28;20028;-66
2022/05/24 00:11:25;;;;;;;12.82;5.93;;;;;;;;;;5074754;28;20026;-66
2022/05/24 00:13:52;;;;;;;13.50;5.47;;;;;;;;;;5074679;28;20032;-65
2022/05/24 00:16:19;;;;;;;13.43;5.55;;;;;;;;;;5073664;28;20036;-66
2022/05/24 00:18:45;;;;;;;10.13;5.07;;;;;;;;;;5074770;28;20028;-66
2022/05/24 00:21:12;;;;;;;10.60;5.03;;;;;;;;;;5076361;28;20021;-66
2022/05/24 00:23:38;;;;;;;18.42;5.55;;;;;;;;;;5068520;28;20391;-66
2022/05/24 00:26:08;;;;;;;9.50;4.90;;;;;;;;;;5075368;28;20028;-66
2022/05/24 00:28:35;;;;;;;9.68;4.80;;;;;;;;;;5067220;28;20033;-65
2022/05/24 00:31:02;;;;;;;8.95;4.97;;;;;;;;;;5073258;28;20024;-67
2022/05/24 00:33:28;;;;;;;12.57;6.03;;;;;;;;;;5073142;28;20442;-66
2022/05/24 00:35:55;;;;;;;11.20;5.28;;;;;;;;;;5072665;28;20020;-66
2022/05/24 00:38:27;;;;;;;9.57;5.15;;;;;;;;;;5072939;28;20460;-68
2022/05/24 00:41:27;;;;;;;12.68;5.28;;;;;;;;;;5072862;28;20399;-67
2022/05/24 00:43:59;;;;;;;18.48;5.90;;;;;;;;;;5072462;28;20037;-66
2022/05/24 00:46:27;;;;;;;16.10;5.28;;;;;;;;;;5072804;28;20463;-69
2022/05/24 00:49:03;;;;;;;12.23;5.95;;;;;;;;;;5072920;28;20025;-67
2022/05/24 00:51:47;;;;;;;13.43;6.53;;;;;;;;;;5072751;28;20032;-69
2022/05/24 00:54:13;;;;;;;15.95;6.60;;;;;;;;;;5072754;28;20095;-68
2022/05/24 00:57:05;;;;;;;15.02;5.55;;;;;;;;;;5072574;28;20495;-68
2022/05/24 00:59:38;;;;;;;14.38;5.70;;;;;;;;;;5072580;28;20032;-67
2022/05/24 01:02:04;;;;;;;15.02;5.78;;;;;;;;;;5071380;28;20119;-68
2022/05/24 01:04:30;;;;;;;10.80;5.35;;;;;;;;;;5071046;28;20033;-69
2022/05/24 01:06:57;;;;;;;10.68;6.07;;;;;;;;;;5072474;28;20040;-70
2022/05/24 01:09:25;;;;;;;15.00;6.13;;;;;;;;;;5072032;28;20024;-67
2022/05/24 01:11:55;;;;;;;15.43;6.25;;;;;;;;;;5070715;28;20039;-68
2022/05/24 01:14:22;;;;;;;9.10;5.57;;;;;;;;;;5070921;28;20037;-68
2022/05/24 01:16:51;;;;;;;12.52;6.25;;;;;;;;;;5072438;28;20035;-68
2022/05/24 01:19:35;;;;;;;18.52;7.20;;;;;;;;;;5068680;28;20376;-72
2022/05/24 01:22:33;;;;;;;14.55;7.53;;;;;;;;;;5070579;28;20033;-69
2022/05/24 01:25:12;;;;;;;13.43;6.82;;;;;;;;;;5068158;28;20387;-70
2022/05/24 01:27:38;;;;;;;16.48;7.65;;;;;;;;;;5071963;28;20340;-71
2022/05/24 01:30:06;;;;;;;15.25;8.60;;;;;;;;;;5072261;28;20054;-71
2022/05/24 01:38:05;;;;;;;16.00;8.10;;;;;;;;;;5072102;28;20079;-75
2022/05/24 01:40:31;;;;;;;12.30;8.10;;;;;;;;;;5071980;28;20039;-70
2022/05/24 01:42:57;;;;;;;16.23;8.05;;;;;;;;;;5072135;28;20040;-70
2022/05/24 01:45:29;;;;;;;20.08;8.85;;;;;;;;;;5071813;28;20025;-69
2022/05/24 01:47:59;;;;;;;13.70;7.65;;;;;;;;;;5071716;28;20048;-68
2022/05/24 01:50:26;;;;;;;13.57;7.65;;;;;;;;;;5071771;28;20032;-68
2022/05/24 01:53:00;;;;;;;13.15;7.60;;;;;;;;;;5071587;28;20463;-70
2022/05/24 01:55:33;;;;;;;12.48;7.32;;;;;;;;;;5062044;28;20056;-72
2022/05/24 01:58:03;;;;;;;13.77;7.45;;;;;;;;;;5051713;28;20119;-70
2022/05/24 02:00:29;;;;;;;13.93;6.43;;;;;;;;;;5051932;28;20067;-69
2022/05/24 02:02:55;;;;;;;13.57;6.78;;;;;;;;;;5066949;28;20051;-70
2022/05/24 02:05:36;;;;;;;18.15;6.47;;;;;;;;;;5050399;28;20032;-70
2022/05/24 02:08:03;;;;;;;16.70;6.88;;;;;;;;;;5057155;28;20116;-69
2022/05/24 02:10:38;;;;;;;12.25;5.78;;;;;;;;;;5071302;28;20035;-71
2022/05/24 02:13:04;;;;;;;16.95;7.05;;;;;;;;;;5071332;28;20086;-70
2022/05/24 02:15:35;;;;;;;13.80;6.15;;;;;;;;;;5074359;28;20031;-68
2022/05/24 02:18:06;;;;;;;12.52;6.43;;;;;;;;;;5073359;28;20108;-68
2022/05/24 02:20:38;;;;;;;20.80;6.50;;;;;;;;;;5071770;28;20035;-67
2022/05/24 02:23:08;;;;;;;18.95;6.18;;;;;;;;;;5071928;28;20051;-69
2022/05/24 02:25:41;;;;;;;9.15;5.47;;;;;;;;;;5075795;28;20020;-68
2022/05/24 02:28:09;;;;;;;12.27;6.43;;;;;;;;;;5074928;28;20041;-68
2022/05/24 02:30:41;;;;;;;19.65;6.80;;;;;;;;;;5075050;28;20419;-68
2022/05/24 02:33:07;;;;;;;13.40;6.73;;;;;;;;;;5075329;28;20128;-68
2022/05/24 02:35:33;;;;;;;13.68;7.18;;;;;;;;;;5075013;28;20029;-68
2022/05/24 02:37:59;;;;;;;18.52;6.60;;;;;;;;;;5074935;28;20379;-66
2022/05/24 02:43:09;;;;;;;19.25;6.45;;;;;;;;;;5080543;28;20037;-66
2022/05/24 02:45:35;;;;;;;19.52;6.72;;;;;;;;;;5082755;28;20376;-66
2022/05/24 02:48:01;;;;;;;15.73;6.55;;;;;;;;;;5076241;28;20531;-67
2022/05/24 02:50:27;;;;;;;20.52;6.60;;;;;;;;;;5083786;28;20024;-68
2022/05/24 02:52:53;;;;;;;16.95;7.05;;;;;;;;;;5084247;28;20208;-68
2022/05/24 02:55:19;;;;;;;17.25;7.00;;;;;;;;;;5076003;28;20031;-67
2022/05/24 02:57:45;;;;;;;14.93;5.90;;;;;;;;;;5073954;28;20457;-67
2022/05/24 03:00:20;;;;;;;14.60;5.75;;;;;;;;;;5071636;28;20037;-68
2022/05/24 03:02:47;;;;;;;16.48;6.20;;;;;;;;;;5074916;28;20047;-68
2022/05/24 03:05:14;;;;;;;12.55;5.97;;;;;;;;;;5074240;28;20031;-67
2022/05/24 03:10:25;;;;;;;15.90;5.95;;;;;;;;;;5074446;28;20111;-68
2022/05/24 03:15:37;;;;;;;13.32;6.18;;;;;;;;;;5074095;28;20032;-67
2022/05/24 03:18:03;;;;;;;20.15;6.53;;;;;;;;;;5074321;28;20044;-68
2022/05/24 03:20:29;;;;;;;20.75;6.88;;;;;;;;;;5073336;28;20423;-67
2022/05/24 03:22:58;;;;;;;12.38;5.95;;;;;;;;;;5068622;28;20034;-68
2022/05/24 03:25:24;;;;;;;17.90;6.57;;;;;;;;;;5073774;28;20032;-69
2022/05/24 03:27:50;;;;;;;18.17;7.20;;;;;;;;;;5074025;28;20418;-67
2022/05/24 03:30:16;;;;;;;26.17;8.38;;;;;;;;;;5074070;28;20410;-66
2022/05/24 03:32:42;;;;;;;19.40;7.28;;;;;;;;;;5073821;28;20068;-68
2022/05/24 03:35:12;;;;;;;17.67;6.55;;;;;;;;;;5072984;28;20043;-68
2022/05/24 03:37:40;;;;;;;17.73;6.90;;;;;;;;;;5074036;28;20040;-68
2022/05/24 03:40:06;;;;;;;26.70;7.07;;;;;;;;;;5073803;28;20033;-68
2022/05/24 03:42:32;;;;;;;18.48;6.80;;;;;;;;;;5073671;28;20483;-71
2022/05/24 03:45:01;;;;;;;11.57;7.13;;;;;;;;;;5070292;28;20039;-67
2022/05/24 03:47:27;;;;;;;13.23;7.25;;;;;;;;;;5073175;28;20063;-66
2022/05/24 03:49:53;;;;;;;15.77;6.65;;;;;;;;;;5072310;28;20443;-68
2022/05/24 03:52:18;;;;;;;24.65;7.22;;;;;;;;;;5073546;28;20028;-69
2022/05/24 03:54:47;;;;;;;31.45;7.30;;;;;;;;;;5072804;28;20021;-67
2022/05/24 03:59:57;;;;;;;15.13;7.72;;;;;;;;;;5065613;28;20044;-67
2022/05/24 04:02:23;;;;;;;12.68;7.50;;;;;;;;;;5072484;28;20020;-67
2022/05/24 04:04:50;;;;;;;13.82;6.75;;;;;;;;;;5074493;28;20055;-67
2022/05/24 04:07:18;;;;;;;22.33;8.38;;;;;;;;;;5075741;28;20032;-67
2022/05/24 04:09:44;;;;;;;14.57;7.05;;;;;;;;;;5077400;28;20060;-67
2022/05/24 04:12:10;;;;;;;21.35;7.05;;;;;;;;;;5073582;28;20024;-66
2022/05/24 04:14:36;;;;;;;18.90;6.43;;;;;;;;;;5073867;28;20044;-67
2022/05/24 04:17:02;;;;;;;15.80;6.90;;;;;;;;;;5070991;28;20028;-67
2022/05/24 04:19:28;;;;;;;21.00;7.10;;;;;;;;;;5074175;28;20111;-67
2022/05/24 04:21:55;;;;;;;10.93;6.05;;;;;;;;;;5067275;28;20025;-67
2022/05/24 04:24:21;;;;;;;20.55;6.85;;;;;;;;;;5052510;28;20072;-66
2022/05/24 04:26:48;;;;;;;20.80;6.32;;;;;;;;;;5053667;28;20049;-67
2022/05/24 04:29:14;;;;;;;17.33;6.35;;;;;;;;;;5053817;28;20033;-67
2022/05/24 04:31:40;;;;;;;26.25;7.18;;;;;;;;;;5061123;28;20029;-67
2022/05/24 04:34:08;;;;;;;24.70;7.80;;;;;;;;;;5053563;28;20040;-67
2022/05/24 04:36:34;;;;;;;21.35;6.43;;;;;;;;;;5055815;28;20017;-67
2022/05/24 04:39:03;;;;;;;17.08;6.05;;;;;;;;;;5063577;28;20048;-67
2022/05/24 04:44:13;;;;;;;16.05;6.15;;;;;;;;;;5057720;28;20062;-67
2022/05/24 04:49:26;;;;;;;15.43;6.75;;;;;;;;;;5053851;28;20036;-68
2022/05/24 04:51:53;;;;;;;25.60;6.32;;;;;;;;;;5053548;28;20484;-67
2022/05/24 04:54:20;;;;;;;14.80;5.40;;;;;;;;;;5053344;28;20123;-67
2022/05/24 04:56:46;;;;;;;12.68;5.70;;;;;;;;;;5052988;28;20044;-68
2022/05/24 04:59:18;;;;;;;20.23;6.13;;;;;;;;;;5053015;28;20552;-66
2022/05/24 05:01:45;;;;;;;13.57;5.10;;;;;;;;;;5052992;28;20111;-68
2022/05/24 05:04:11;;;;;;;14.63;5.97;;;;;;;;;;5051798;28;20024;-67
2022/05/24 05:06:42;;;;;;;13.57;5.80;;;;;;;;;;5065360;28;20040;-67
2022/05/24 05:09:10;;;;;;;14.98;5.80;;;;;;;;;;5072985;28;20075;-67
2022/05/24 05:11:36;;;;;;;19.63;6.90;;;;;;;;;;5073340;28;20455;-67
2022/05/24 05:14:02;;;;;;;11.63;5.97;;;;;;;;;;5072062;28;20028;-67
2022/05/24 05:16:28;;;;;;;16.55;6.80;;;;;;;;;;5071594;28;20070;-68
2022/05/24 05:18:56;;;;;;;14.35;6.57;;;;;;;;;;5072098;28;20029;-67
2022/05/24 05:21:22;;;;;;;12.32;8.15;;;;;;;;;;5071899;28;20039;-67
2022/05/24 05:23:48;;;;;;;12.80;8.15;;;;;;;;;;5072669;28;20036;-67
2022/05/24 05:26:14;;;;;;;14.45;7.88;;;;;;;;;;5064977;28;20035;-66
2022/05/24 05:28:41;;;;;;;13.60;7.55;;;;;;;;;;5053279;28;20036;-67
2022/05/24 05:31:17;;;;;;;13.85;7.63;;;;;;;;;;5069385;28;20025;-68
2022/05/24 05:33:44;;;;;;;30.00;10.68;;;;;;;;;;5071525;28;20174;-67
2022/05/24 05:36:11;;;;;;;11.50;7.35;;;;;;;;;;5071637;28;20017;-74
2022/05/24 05:38:37;;;;;;;15.15;8.43;;;;;;;;;;5067444;28;20483;-72
2022/05/24 05:41:04;;;;;;;12.88;7.18;;;;;;;;;;5068087;28;20387;-73
2022/05/24 05:43:30;;;;;;;16.60;8.27;;;;;;;;;;5063626;28;20041;-73
2022/05/24 05:45:59;;;;;;;24.90;8.75;;;;;;;;;;5052234;28;20021;-74
2022/05/24 05:48:26;;;;;;;16.85;7.55;;;;;;;;;;5052330;28;20032;-73
2022/05/24 05:50:52;;;;;;;15.02;8.57;;;;;;;;;;5052304;28;20025;-73
2022/05/24 05:53:18;;;;;;;15.25;8.00;;;;;;;;;;5050459;28;20067;-75
2022/05/24 05:55:44;;;;;;;10.90;6.95;;;;;;;;;;5058892;28;20076;-72
2022/05/24 05:58:12;;;;;;;16.17;7.82;;;;;;;;;;5062228;28;20130;-74
2022/05/24 06:00:39;;;;;;;14.63;7.95;;;;;;;;;;5055324;28;20522;-73
2022/05/24 06:03:06;;;;;;;15.25;8.35;;;;;;;;;;5056433;28;20101;-74
2022/05/24 06:05:32;;;;;;;16.38;9.05;;;;;;;;;;5058263;28;20074;-74
2022/05/24 06:07:59;;;;;;;10.27;7.75;;;;;;;;;;5071897;28;20467;-76
2022/05/24 06:10:27;;;;;;;11.13;7.05;;;;;;;;;;5070745;28;20654;-75
2022/05/24 06:12:53;;;;;;;13.43;8.18;;;;;;;;;;5053248;28;20060;-76
2022/05/24 06:15:19;;;;;;;18.60;8.15;;;;;;;;;;5058223;28;20473;-72
2022/05/24 06:17:48;;;;;;;19.77;8.98;;;;;;;;;;5072134;28;20115;-69
2022/05/24 06:20:23;;;;;;;13.52;8.63;;;;;;;;;;5071073;28;20048;-70
2022/05/24 06:22:52;;;;;;;12.95;8.88;;;;;;;;;;5065367;28;20424;-73
2022/05/24 06:25:19;;;;;;;15.93;9.13;;;;;;;;;;5051878;28;20112;-72
2022/05/24 06:27:45;;;;;;;11.35;7.90;;;;;;;;;;5071831;28;20029;-72
2022/05/24 06:30:12;;;;;;;18.52;9.25;;;;;;;;;;5070882;28;20024;-72
2022/05/24 06:32:38;;;;;;;22.73;9.75;;;;;;;;;;5072059;28;20074;-73
2022/05/24 06:35:06;;;;;;;11.73;8.13;;;;;;;;;;5071737;28;20113;-70
2022/05/24 06:37:32;;;;;;;14.32;7.30;;;;;;;;;;5071181;28;20467;-70
2022/05/24 06:39:58;;;;;;;8.60;7.05;;;;;;;;;;5071435;28;20125;-72
2022/05/24 06:42:24;;;;;;;12.13;7.60;;;;;;;;;;5067681;28;20143;-71
2022/05/24 06:44:50;;;;;;;15.02;8.70;;;;;;;;;;5070915;28;20128;-70
2022/05/24 06:47:16;;;;;;;9.73;6.32;;;;;;;;;;5070786;28;20036;-72
2022/05/24 06:49:42;;;;;;;10.00;6.93;;;;;;;;;;5071746;28;20036;-71
2022/05/24 06:52:08;;;;;;;11.98;6.80;;;;;;;;;;5071856;28;20395;-71
2022/05/24 06:54:35;;;;;;;14.10;6.60;;;;;;;;;;5071607;28;20031;-69
2022/05/24 06:57:03;;;;;;;11.75;6.57;;;;;;;;;;5070172;28;20044;-70
2022/05/24 07:02:25;;;;;;;13.38;5.13;;;;;;;;;;5051365;28;20036;-70
2022/05/24 07:04:58;;;;;;;12.07;5.57;;;;;;;;;;5051577;28;20033;-70
2022/05/24 07:07:25;;;;;;;11.63;5.57;;;;;;;;;;5051178;28;20083;-70
2022/05/24 07:09:52;;;;;;;12.18;6.13;;;;;;;;;;5051339;28;20052;-72
2022/05/24 07:12:22;;;;;;;6.63;4.82;;;;;;;;;;5054854;28;20107;-70
2022/05/24 07:14:48;;;;;;;18.05;6.32;;;;;;;;;;5054888;28;20487;-71
2022/05/24 07:17:17;;;;;;;12.50;5.57;;;;;;;;;;5054810;28;20063;-71
2022/05/24 07:19:44;;;;;;;11.18;4.88;;;;;;;;;;5069905;28;20040;-71
2022/05/24 07:22:11;;;;;;;11.23;5.40;;;;;;;;;;5036966;28;20017;-71
2022/05/24 07:24:37;;;;;;;10.88;5.20;;;;;;;;;;5055005;28;20507;-77
2022/05/24 07:27:07;;;;;;;7.63;4.60;;;;;;;;;;5054896;28;20411;-76
2022/05/24 07:29:36;;;;;;;12.27;4.40;;;;;;;;;;5054773;28;20033;-76
2022/05/24 07:32:02;;;;;;;7.05;3.50;;;;;;;;;;5054865;28;20481;-76
2022/05/24 07:34:28;;;;;;;9.70;3.53;;;;;;;;;;5054667;28;20041;-72
2022/05/24 07:36:54;;;;;;;9.38;3.90;;;;;;;;;;5054226;28;20021;-74
2022/05/24 07:39:20;;;;;;;6.40;3.80;;;;;;;;;;5054133;28;20411;-72
2022/05/24 07:47:14;;;;;;;11.40;4.85;;;;;;;;;;5054383;28;20090;-71
2022/05/24 07:49:40;;;;;;;10.50;4.40;;;;;;;;;;5053926;28;20024;-71
2022/05/24 07:52:06;;;;;;;9.23;3.95;;;;;;;;;;5054004;28;20048;-70
2022/05/24 07:54:33;;;;;;;6.53;3.33;;;;;;;;;;5057593;28;20029;-70
2022/05/24 07:57:00;;;;;;;11.32;3.63;;;;;;;;;;5056195;28;20041;-73
2022/05/24 07:59:25;;;;;;;5.38;3.20;;;;;;;;;;5054420;28;20075;-69
2022/05/24 08:01:52;;;;;;;9.05;3.50;;;;;;;;;;5054481;28;20033;-69
2022/05/24 08:04:18;;;;;;;6.80;4.10;;;;;;;;;;5054219;28;20031;-70
2022/05/24 08:06:44;;;;;;;10.15;4.15;;;;;;;;;;5053890;28;20052;-71
2022/05/24 08:09:10;;;;;;;8.77;4.82;;;;;;;;;;5053833;28;20025;-70
2022/05/24 08:11:36;;;;;;;5.35;3.75;;;;;;;;;;5053817;28;20041;-70
2022/05/24 08:14:03;;;;;;;7.85;3.70;;;;;;;;;;5053931;28;20029;-71
2022/05/24 08:16:31;;;;;;;4.68;2.83;;;;;;;;;;5053918;28;20041;-71
2022/05/24 08:18:58;;;;;;;8.35;3.85;;;;;;;;;;5053759;28;20059;-71
2022/05/24 08:21:27;;;;;;;5.07;3.28;;;;;;;;;;5053197;28;20120;-70
2022/05/24 08:23:53;;;;;;;10.30;3.35;;;;;;;;;;5054132;28;20025;-71
2022/05/24 08:26:19;;;;;;;5.32;2.90;;;;;;;;;;5053841;28;20036;-72
2022/05/24 08:28:47;;;;;;;4.60;3.20;;;;;;;;;;5053594;28;20032;-71
2022/05/24 08:31:15;;;;;;;6.93;3.25;;;;;;;;;;5053451;28;20033;-70
2022/05/24 08:33:42;;;;;;;6.20;3.15;;;;;;;;;;5053270;28;20039;-70
2022/05/24 08:36:09;;;;;;;4.07;2.50;;;;;;;;;;5053378;28;20047;-70
2022/05/24 08:38:36;;;;;;;4.88;2.72;;;;;;;;;;5053383;28;20021;-71
2022/05/24 08:41:06;;;;;;;4.88;2.75;;;;;;;;;;5053359;28;20036;-71
2022/05/24 08:43:50;;;;;;;7.43;3.10;;;;;;;;;;5052984;28;20052;-69
2022/05/24 08:49:13;;;;;;;7.03;2.58;;;;;;;;;;5053224;28;20029;-71
2022/05/24 08:51:47;;;;;;;7.45;3.15;;;;;;;;;;5053317;28;20098;-71
2022/05/24 08:54:17;;;;;;;8.93;3.20;;;;;;;;;;5052999;28;20032;-69
2022/05/24 08:56:54;;;;;;;7.93;3.25;;;;;;;;;;5053111;28;20130;-72
2022/05/24 08:59:49;;;;;;;7.50;2.95;;;;;;;;;;5053014;28;20037;-71
2022/05/24 09:02:15;;;;;;;6.47;2.92;;;;;;;;;;5052941;28;20029;-71
2022/05/24 09:04:40;;;;;;;8.82;3.70;;;;;;;;;;5054107;28;20087;-71
2022/05/24 09:07:51;;;;;;;5.80;3.13;;;;;;;;;;5052541;28;20507;-72
2022/05/24 09:10:23;;;;;;;10.15;2.97;;;;;;;;;;5050189;28;20033;-72
2022/05/24 09:13:04;;;;;;;5.73;3.03;;;;;;;;;;5050267;28;20040;-71
2022/05/24 09:15:39;;;;;;;12.45;3.00;;;;;;;;;;5051932;28;20139;-76
2022/05/24 09:18:40;;;;;;;8.23;3.10;;;;;;;;;;5053030;28;20399;-73
2022/05/24 09:21:06;;;;;;;9.13;3.15;;;;;;;;;;5052746;28;20112;-73
2022/05/24 09:23:55;;;;;;;13.52;3.50;;;;;;;;;;5052765;28;20100;-74
2022/05/24 09:26:22;;;;;;;8.27;3.38;;;;;;;;;;5069348;28;20029;-72
2022/05/24 09:28:55;;;;;;;13.10;3.45;;;;;;;;;;5072678;28;20038;-73
2022/05/24 09:31:41;;;;;;;8.35;2.95;;;;;;;;;;5072476;28;20033;-72
2022/05/24 09:34:26;;;;;;;7.68;3.47;;;;;;;;;;5071810;28;20431;-72
2022/05/24 09:37:10;;;;;;;6.82;3.20;;;;;;;;;;5069370;28;20037;-73
2022/05/24 09:39:56;;;;;;;7.90;2.95;;;;;;;;;;5071273;28;20029;-73
2022/05/24 09:42:28;;;;;;;6.57;2.75;;;;;;;;;;5059005;28;20047;-72
2022/05/24 09:44:59;;;;;;;7.47;3.05;;;;;;;;;;5070509;28;20625;-72
2022/05/24 09:47:43;;;;;;;5.63;2.83;;;;;;;;;;5071380;28;20036;-71
2022/05/24 09:50:33;;;;;;;6.88;2.90;;;;;;;;;;5071373;28;20040;-73
2022/05/24 09:53:12;;;;;;;5.45;3.00;;;;;;;;;;5071119;28;20482;-73
2022/05/24 09:55:48;;;;;;;5.15;3.20;;;;;;;;;;5069812;28;20537;-72
2022/05/24 09:58:20;;;;;;;9.60;3.10;;;;;;;;;;5063023;28;20087;-73
2022/05/24 10:01:00;;;;;;;9.18;2.97;;;;;;;;;;5050896;28;20139;-75
2022/05/24 10:03:35;;;;;;;6.93;3.10;;;;;;;;;;5059136;28;20492;-74
2022/05/24 10:06:04;;;;;;;9.73;3.45;;;;;;;;;;5070966;28;20045;-72
2022/05/24 10:08:39;;;;;;;9.45;3.08;;;;;;;;;;5069194;28;20026;-75
2022/05/24 10:11:11;;;;;;;6.65;3.53;;;;;;;;;;5071033;28;20046;-76
2022/05/24 10:13:45;;;;;;;6.50;2.80;;;;;;;;;;5070573;28;20060;-76
2022/05/24 10:16:23;;;;;;;8.48;2.83;;;;;;;;;;5068845;28;20051;-75
2022/05/24 10:19:13;;;;;;;5.35;2.85;;;;;;;;;;5070644;28;20438;-73
2022/05/24 10:21:45;;;;;;;6.13;2.90;;;;;;;;;;5070287;28;20033;-77
2022/05/24 10:24:43;;;;;;;11.73;3.00;;;;;;;;;;5070332;28;20475;-74
2022/05/24 10:27:17;;;;;;;8.10;3.22;;;;;;;;;;5066346;28;20048;-78
2022/05/24 10:29:54;;;;;;;6.00;3.00;;;;;;;;;;5070771;28;20056;-77
2022/05/24 10:39:02;;;;;;;6.15;3.08;;;;;;;;;;5070597;28;20029;-77
2022/05/24 10:41:49;;;;;;;7.82;3.22;;;;;;;;;;5069695;28;20060;-75
2022/05/24 10:44:24;;;;;;;4.30;2.85;;;;;;;;;;5065614;28;20417;-75
2022/05/24 10:47:02;;;;;;;7.60;2.83;;;;;;;;;;5074836;28;20036;-75
2022/05/24 10:49:39;;;;;;;4.13;2.72;;;;;;;;;;5073229;28;20476;-79
2022/05/24 10:52:11;;;;;;;5.03;2.58;;;;;;;;;;5073299;28;20044;-76
2022/05/24 10:54:52;;;;;;;4.63;2.83;;;;;;;;;;5054539;28;20073;-73
2022/05/24 10:57:34;;;;;;;7.30;2.90;;;;;;;;;;5054322;28;20487;-71
2022/05/24 11:00:03;;;;;;;7.30;3.42;;;;;;;;;;5054059;28;20400;-72
2022/05/24 11:02:42;;;;;;;4.03;2.65;;;;;;;;;;5060210;28;20039;-77
2022/05/24 11:05:23;;;;;;;5.50;3.03;;;;;;;;;;5054328;28;20364;-79
2022/05/24 11:07:56;;;;;;;6.38;3.10;;;;;;;;;;5052718;28;20082;-77
2022/05/24 11:10:31;;;;;;;8.45;3.00;;;;;;;;;;5052956;28;20068;-77
2022/05/24 11:13:04;;;;;;;11.45;3.53;;;;;;;;;;5052156;28;20068;-78
2022/05/24 11:15:41;;;;;;;4.70;2.80;;;;;;;;;;5053435;28;20029;-76
2022/05/24 11:18:21;;;;;;;4.38;2.83;;;;;;;;;;5055276;28;20037;-75
2022/05/24 11:20:56;;;;;;;5.75;2.97;;;;;;;;;;5055150;28;20033;-77
2022/05/24 11:23:33;;;;;;;5.10;2.63;;;;;;;;;;5055322;28;20530;-78
2022/05/24 11:26:10;;;;;;;5.72;3.17;;;;;;;;;;5060024;28;20032;-79
2022/05/24 11:28:49;;;;;;;3.45;2.53;;;;;;;;;;5059851;28;20040;-76
2022/05/24 11:31:27;;;;;;;6.97;2.75;;;;;;;;;;5055150;28;20029;-77
2022/05/24 11:33:54;;;;;;;7.50;3.00;;;;;;;;;;5053648;28;20044;-78
2022/05/24 11:36:42;;;;;;;6.47;3.13;;;;;;;;;;5054965;28;20027;-77
2022/05/24 11:39:14;;;;;;;4.25;2.80;;;;;;;;;;5074451;28;20384;-78
2022/05/24 11:41:40;;;;;;;7.60;2.90;;;;;;;;;;5074977;28;20037;-77
2022/05/24 11:44:27;;;;;;;8.98;4.18;;;;;;;;;;5063248;28;20472;-78
2022/05/24 11:46:55;;;;;;;7.13;3.03;;;;;;;;;;5062093;28;20044;-75
2022/05/24 11:49:24;;;;;;;10.57;3.42;;;;;;;;;;5074362;28;20116;-73
2022/05/24 11:51:52;;;;;;;8.45;3.50;;;;;;;;;;5074270;28;20033;-78
2022/05/24 11:54:21;;;;;;;6.05;2.75;;;;;;;;;;5073568;28;20047;-75
2022/05/24 11:57:06;;;;;;;6.65;3.20;;;;;;;;;;5055812;28;20368;-76
2022/05/24 11:59:39;;;;;;;6.63;2.70;;;;;;;;;;5054057;28;20045;-77
2022/05/24 12:02:20;;;;;;;;;;;;;;;;;;5054292;28;20113;-74
2022/05/24 12:08:28;;;;;;;4.50;2.80;;;;;;;;;;5054433;28;20052;-74
2022/05/24 12:11:13;;;;;;;6.75;2.67;;;;;;;;;;5055338;28;20721;-73
2022/05/24 12:13:55;;;;;;;4.93;2.60;;;;;;;;;;5055484;28;20099;-74
2022/05/24 12:16:32;;;;;;;8.43;2.73;;;;;;;;;;5055763;28;20383;-74
2022/05/24 12:19:02;;;;;;;5.60;2.78;;;;;;;;;;5053753;28;20468;-73
2022/05/24 12:21:41;;;;;;;4.70;2.40;;;;;;;;;;5051848;28;20090;-77
2022/05/24 12:24:29;;;;;;;5.53;2.65;;;;;;;;;;5054066;28;20523;-72
2022/05/24 12:27:27;;;;;;;5.45;2.70;;;;;;;;;;5054172;28;20055;-74
2022/05/24 12:30:02;;;;;;;4.28;2.92;;;;;;;;;;5054069;28;20086;-78
2022/05/24 12:32:33;;;;;;;6.43;2.90;;;;;;;;;;5069067;28;20369;-79
2022/05/24 12:35:12;;;;;;;8.27;2.87;;;;;;;;;;5053417;28;20036;-70
2022/05/24 12:37:45;;;;;;;4.93;2.90;;;;;;;;;;5053246;28;20030;-73
2022/05/24 12:40:14;;;;;;;6.25;3.00;;;;;;;;;;5053612;28;20553;-72
2022/05/24 12:43:07;;;;;;;6.43;2.90;;;;;;;;;;5053596;28;20387;-73
2022/05/24 12:45:43;;;;;;;5.07;2.83;;;;;;;;;;5053015;28;20231;-72
2022/05/24 12:48:36;;;;;;;5.75;2.95;;;;;;;;;;5054527;28;20653;-72
2022/05/24 12:51:08;;;;;;;4.75;2.70;;;;;;;;;;5052678;28;20044;-75
2022/05/24 12:53:36;;;;;;;13.07;3.40;;;;;;;;;;5053455;28;20047;-76
2022/05/24 12:56:08;;;;;;;4.95;2.75;;;;;;;;;;5053015;28;20047;-78
2022/05/24 12:58:37;;;;;;;5.80;2.65;;;;;;;;;;5052705;28;20040;-80
2022/05/24 13:01:24;;;;;;;7.13;2.63;;;;;;;;;;5052866;28;20118;-80
2022/05/24 13:04:07;;;;;;;5.97;2.60;;;;;;;;;;5052580;28;20045;-76
2022/05/24 13:06:48;;;;;;;7.05;2.65;;;;;;;;;;5051291;28;20487;-78
2022/05/24 13:09:21;;;;;;;6.20;2.80;;;;;;;;;;5052702;28;20029;-77
2022/05/24 13:11:51;;;;;;;7.78;2.42;;;;;;;;;;5053379;28;20104;-79
2022/05/24 13:14:45;;;;;;;3.95;2.70;;;;;;;;;;5052984;28;20083;-78
2022/05/24 13:17:13;;;;;;;6.00;2.92;;;;;;;;;;5058845;28;20032;-81
2022/05/24 13:19:54;;;;;;;6.28;2.78;;;;;;;;;;5057938;28;20028;-80
2022/05/24 13:22:24;;;;;;;4.45;3.17;;;;;;;;;;5053116;28;20414;-80
2022/05/24 13:24:54;;;;;;;6.05;2.75;;;;;;;;;;5053084;28;20029;-79
2022/05/24 13:27:20;;;;;;;4.30;2.63;;;;;;;;;;5052767;28;20028;-80
2022/05/24 13:35:25;;;;;;;4.97;3.08;;;;;;;;;;5052880;28;20392;-79
2022/05/24 13:37:54;;;;;;;6.32;2.80;;;;;;;;;;5052509;28;20025;-76
2022/05/24 13:40:41;;;;;;;6.20;3.05;;;;;;;;;;5052609;28;20033;-76
2022/05/24 13:43:08;;;;;;;12.80;3.03;;;;;;;;;;5052475;28;20040;-78
2022/05/24 13:45:34;;;;;;;6.50;2.80;;;;;;;;;;5051273;28;20127;-78
2022/05/24 13:48:22;;;;;;;8.63;2.88;;;;;;;;;;5052315;28;20446;-80
2022/05/24 13:50:48;;;;;;;8.32;3.22;;;;;;;;;;5052456;28;20384;-79
2022/05/24 13:53:37;;;;;;;7.88;2.75;;;;;;;;;;5052212;28;20032;-76
2022/05/24 13:56:06;;;;;;;6.18;2.60;;;;;;;;;;5052137;28;20057;-78
2022/05/24 13:58:38;;;;;;;7.15;2.92;;;;;;;;;;5052218;28;20104;-80
2022/05/24 14:01:11;;;;;;;7.07;3.00;;;;;;;;;;5052308;28;20047;-78
2022/05/24 14:03:50;;;;;;;6.28;2.70;;;;;;;;;;5052226;28;20609;-80
2022/05/24 14:06:21;;;;;;;6.32;2.80;;;;;;;;;;5051850;28;20021;-78
2022/05/24 14:08:53;;;;;;;6.78;3.38;;;;;;;;;;5067511;28;20037;-79
2022/05/24 14:11:30;;;;;;;7.28;2.90;;;;;;;;;;5051966;28;20029;-77
2022/05/24 14:13:57;;;;;;;9.77;3.17;;;;;;;;;;5052227;28;20039;-76
2022/05/24 14:16:24;;;;;;;8.05;2.92;;;;;;;;;;5052298;28;20103;-77
2022/05/24 14:18:52;;;;;;;5.05;3.15;;;;;;;;;;5052906;28;20025;-75
2022/05/24 14:21:33;;;;;;;8.90;3.00;;;;;;;;;;5058436;28;20486;-74
2022/05/24 14:23:59;;;;;;;7.55;3.30;;;;;;;;;;5068398;28;20040;-75
2022/05/24 14:26:26;;;;;;;5.70;2.97;;;;;;;;;;5077899;28;20025;-73
2022/05/24 14:28:53;;;;;;;3.95;3.00;;;;;;;;;;5077711;28;20028;-75
2022/05/24 14:31:21;;;;;;;6.70;2.80;;;;;;;;;;5078044;28;20024;-72
2022/05/24 14:33:48;;;;;;;7.38;3.10;;;;;;;;;;5079345;28;20063;-72
2022/05/24 14:36:14;;;;;;;4.75;3.20;;;;;;;;;;5079566;28;20468;-71
2022/05/24 14:38:40;;;;;;;4.80;2.85;;;;;;;;;;5085728;28;20049;-72
2022/05/24 14:41:22;;;;;;;5.32;2.75;;;;;;;;;;5080014;28;20024;-73
2022/05/24 14:44:00;;;;;;;11.82;3.30;;;;;;;;;;5076589;28;20037;-77
2022/05/24 14:46:28;;;;;;;5.40;3.17;;;;;;;;;;5078356;28;20040;-74
2022/05/24 14:48:54;;;;;;;5.68;3.25;;;;;;;;;;5078516;28;20013;-74
2022/05/24 14:51:29;;;;;;;5.55;3.22;;;;;;;;;;5078543;28;20111;-76
2022/05/24 14:53:56;;;;;;;6.22;3.20;;;;;;;;;;5078123;28;20383;-78
2022/05/24 14:56:22;;;;;;;4.50;2.88;;;;;;;;;;5078077;28;20513;-73
2022/05/24 14:58:48;;;;;;;5.00;2.85;;;;;;;;;;5078380;28;20056;-76
2022/05/24 15:01:13;;;;;;;4.53;2.92;;;;;;;;;;5078365;28;20118;-73
2022/05/24 15:03:40;;;;;;;7.88;3.33;;;;;;;;;;5076664;28;20120;-69
2022/05/24 15:06:07;;;;;;;4.93;3.10;;;;;;;;;;5078095;28;20048;-76
2022/05/24 15:16:49;;;;;;;8.05;3.10;;;;;;;;;;5066474;28;20044;-77
2022/05/24 15:19:19;;;;;;;5.60;3.25;;;;;;;;;;5077858;28;20439;-78
2022/05/24 15:21:48;;;;;;;6.88;3.00;;;;;;;;;;5077948;28;20035;-76
2022/05/24 15:24:20;;;;;;;7.20;2.95;;;;;;;;;;5078148;28;20020;-72
2022/05/24 15:26:53;;;;;;;9.75;3.30;;;;;;;;;;5078186;28;20363;-71
2022/05/24 15:29:19;;;;;;;10.02;3.28;;;;;;;;;;5078057;28;20107;-73
2022/05/24 15:31:46;;;;;;;6.75;3.35;;;;;;;;;;5074702;28;20419;-75
2022/05/24 15:34:12;;;;;;;6.70;3.05;;;;;;;;;;5074717;28;20032;-70
2022/05/24 15:36:38;;;;;;;12.35;3.42;;;;;;;;;;5074716;28;20463;-72
2022/05/24 15:39:04;;;;;;;8.05;2.92;;;;;;;;;;5074817;28;20045;-74
2022/05/24 15:41:32;;;;;;;9.73;3.10;;;;;;;;;;5074851;28;20032;-72
2022/05/24 15:43:59;;;;;;;6.03;3.17;;;;;;;;;;5074661;28;20035;-75
2022/05/24 15:46:26;;;;;;;5.38;2.70;;;;;;;;;;5074581;28;20032;-74
2022/05/24 15:48:53;;;;;;;4.70;2.83;;;;;;;;;;5074815;28;20036;-77
2022/05/24 15:51:20;;;;;;;4.97;2.80;;;;;;;;;;5074483;28;20024;-77
2022/05/24 15:53:47;;;;;;;7.95;3.10;;;;;;;;;;5074482;28;20355;-74
2022/05/24 15:56:13;;;;;;;5.82;3.00;;;;;;;;;;5074283;28;20124;-74